createdAt,value
2019-03-06T00:01:15.351Z,4.40
2019-03-06T00:03:44.908Z,4.10
2019-03-06T00:06:16.918Z,4.00
2019-03-06T00:08:47.609Z,3.90
2019-03-06T00:11:16.915Z,3.80
2019-03-06T00:13:45.854Z,3.70
2019-03-06T00:16:15.494Z,3.60
2019-03-06T00:18:44.485Z,3.50
2019-03-06T00:21:13.381Z,3.60
2019-03-06T00:23:43.215Z,3.60
2019-03-06T00:26:13.227Z,3.70
2019-03-06T00:28:42.163Z,4.00
2019-03-06T00:31:11.068Z,3.00
2019-03-06T00:33:39.996Z,5.40
2019-03-06T00:36:10.590Z,4.20
2019-03-06T00:38:39.970Z,4.30
2019-03-06T00:41:10.454Z,4.30
2019-03-06T00:43:39.387Z,4.30
2019-03-06T00:46:08.288Z,4.40
2019-03-06T00:48:37.642Z,4.40
2019-03-06T00:51:06.533Z,4.50
2019-03-06T00:53:35.478Z,4.50
2019-03-06T00:56:04.988Z,4.50
2019-03-06T00:58:34.116Z,4.50
2019-03-06T01:01:03.021Z,4.50
2019-03-06T01:03:31.926Z,4.50
2019-03-06T01:06:03.346Z,4.60
2019-03-06T01:08:32.246Z,4.70
2019-03-06T01:11:01.179Z,4.70
2019-03-06T01:13:30.067Z,4.70
2019-03-06T01:16:00.038Z,4.70
2019-03-06T01:18:30.213Z,4.70
2019-03-06T01:21:00.668Z,4.70
2019-03-06T01:23:29.871Z,4.70
2019-03-06T01:25:59.035Z,4.70
2019-03-06T01:28:29.407Z,4.70
2019-03-06T01:30:59.084Z,4.70
2019-03-06T01:33:29.566Z,4.70
2019-03-06T01:36:07.353Z,4.70
2019-03-06T01:38:37.861Z,4.70
2019-03-06T01:41:08.385Z,4.70
2019-03-06T01:43:41.557Z,4.70
2019-03-06T01:46:12.578Z,4.70
2019-03-06T01:48:42.168Z,4.70
2019-03-06T01:51:11.741Z,4.70
2019-03-06T01:53:40.802Z,4.00
2019-03-06T01:56:10.487Z,4.70
2019-03-06T01:58:39.487Z,4.70
2019-03-06T02:01:09.439Z,4.70
2019-03-06T02:03:39.020Z,4.60
2019-03-06T02:06:08.160Z,4.70
2019-03-06T02:08:37.153Z,4.60
2019-03-06T02:11:08.746Z,4.60
2019-03-06T02:13:37.641Z,4.60
2019-03-06T02:16:06.623Z,4.60
2019-03-06T02:18:35.566Z,4.60
2019-03-06T02:21:05.108Z,4.60
2019-03-06T02:23:35.792Z,4.70
2019-03-06T02:26:04.735Z,4.60
2019-03-06T02:28:33.629Z,4.70
2019-03-06T02:31:02.593Z,4.70
2019-03-06T02:33:31.503Z,4.70
2019-03-06T02:36:00.527Z,4.70
2019-03-06T02:38:29.418Z,4.70
2019-03-06T02:40:58.334Z,4.70
2019-03-06T02:43:27.355Z,4.70
2019-03-06T02:45:56.248Z,4.60
2019-03-06T02:48:25.210Z,4.70
2019-03-06T02:50:56.625Z,4.70
2019-03-06T02:53:25.995Z,4.70
2019-03-06T02:55:54.925Z,4.60
2019-03-06T02:58:29.271Z,4.70
2019-03-06T03:01:16.501Z,4.70
2019-03-06T03:03:47.245Z,4.60
2019-03-06T03:06:20.718Z,4.60
2019-03-06T03:08:50.258Z,4.70
2019-03-06T03:11:19.156Z,4.60
2019-03-06T03:13:48.095Z,4.50
2019-03-06T03:16:16.997Z,4.50
2019-03-06T03:18:45.941Z,4.40
2019-03-06T03:21:14.839Z,4.40
2019-03-06T03:23:43.778Z,4.20
2019-03-06T03:26:12.673Z,4.20
2019-03-06T03:28:41.994Z,4.20
2019-03-06T03:31:11.182Z,4.10
2019-03-06T03:33:40.154Z,4.10
2019-03-06T03:36:09.044Z,4.00
2019-03-06T03:38:37.986Z,4.00
2019-03-06T03:41:07.383Z,4.00
2019-03-06T03:43:36.632Z,3.90
2019-03-06T03:46:05.517Z,4.00
2019-03-06T03:48:34.769Z,3.90
2019-03-06T03:51:03.648Z,3.90
2019-03-06T03:53:32.590Z,3.90
2019-03-06T03:56:01.819Z,3.90
2019-03-06T03:58:30.758Z,3.90
2019-03-06T04:00:59.668Z,3.80
2019-03-06T04:03:28.624Z,3.80
2019-03-06T04:05:57.505Z,3.80
2019-03-06T04:08:26.669Z,3.80
2019-03-06T04:10:56.170Z,3.80
2019-03-06T04:13:25.117Z,3.80
2019-03-06T04:15:54.022Z,3.70
2019-03-06T04:18:24.430Z,3.70
2019-03-06T04:20:53.348Z,3.80
2019-03-06T04:23:25.846Z,3.70
2019-03-06T04:25:54.800Z,3.80
2019-03-06T04:28:23.732Z,3.70
2019-03-06T04:30:53.455Z,3.70
2019-03-06T04:33:22.412Z,3.70
2019-03-06T04:35:51.402Z,3.70
2019-03-06T04:38:20.385Z,3.60
2019-03-06T04:40:51.325Z,3.70
2019-03-06T04:43:22.719Z,3.60
2019-03-06T04:45:53.244Z,3.60
2019-03-06T04:48:22.780Z,3.60
2019-03-06T04:50:51.678Z,3.60
2019-03-06T04:53:21.809Z,3.60
2019-03-06T04:55:52.178Z,3.60
2019-03-06T04:58:22.509Z,3.60
2019-03-06T05:00:51.416Z,3.50
2019-03-06T05:03:20.395Z,3.50
2019-03-06T05:05:51.982Z,3.50
2019-03-06T05:08:22.728Z,3.50
2019-03-06T05:10:52.695Z,3.50
2019-03-06T05:13:21.815Z,3.40
2019-03-06T05:15:51.909Z,3.40
2019-03-06T05:18:36.259Z,3.30
2019-03-06T05:21:07.425Z,3.30
2019-03-06T05:23:36.327Z,3.20
2019-03-06T05:26:08.190Z,3.30
2019-03-06T05:28:37.493Z,3.30
2019-03-06T05:31:06.447Z,3.30
2019-03-06T05:33:35.366Z,3.30
2019-03-06T05:36:24.887Z,3.30
2019-03-06T05:39:12.171Z,3.30
2019-03-06T05:41:41.074Z,3.30
2019-03-06T05:44:10.424Z,3.30
2019-03-06T05:46:39.323Z,3.30
2019-03-06T05:49:10.282Z,3.30
2019-03-06T05:51:41.540Z,3.40
2019-03-06T05:54:10.947Z,3.40
2019-03-06T05:56:42.455Z,3.40
2019-03-06T05:59:17.946Z,3.50
2019-03-06T06:01:46.837Z,3.40
2019-03-06T06:04:16.115Z,3.50
2019-03-06T06:06:45.054Z,3.50
2019-03-06T06:09:14.005Z,3.50
2019-03-06T06:11:47.550Z,3.60
2019-03-06T06:14:16.500Z,3.70
2019-03-06T06:16:47.808Z,3.70
2019-03-06T06:19:16.745Z,4.50
2019-03-06T06:22:05.144Z,3.60
2019-03-06T06:24:34.081Z,3.70
2019-03-06T06:27:03.477Z,3.70
2019-03-06T06:29:37.837Z,3.80
2019-03-06T06:32:08.148Z,3.80
2019-03-06T06:34:37.080Z,3.80
2019-03-06T06:37:05.982Z,3.80
2019-03-06T06:39:35.385Z,3.80
2019-03-06T06:42:04.749Z,3.80
2019-03-06T06:44:33.660Z,3.80
2019-03-06T06:47:03.303Z,3.80
2019-03-06T06:49:32.200Z,3.90
2019-03-06T06:52:22.268Z,3.90
2019-03-06T06:55:02.966Z,3.90
2019-03-06T06:57:50.019Z,4.00
2019-03-06T07:00:26.082Z,4.10
2019-03-06T07:03:18.802Z,4.10
2019-03-06T07:05:49.475Z,4.10
2019-03-06T07:08:37.863Z,4.20
2019-03-06T07:11:08.628Z,4.30
2019-03-06T07:13:41.869Z,4.30
2019-03-06T07:16:12.841Z,4.40
2019-03-06T07:18:46.828Z,4.40
2019-03-06T07:21:25.119Z,4.50
2019-03-06T07:24:01.629Z,4.50
2019-03-06T07:26:51.017Z,4.60
2019-03-06T07:29:33.946Z,4.60
2019-03-06T07:32:16.376Z,4.80
2019-03-06T07:35:29.406Z,4.80
2019-03-06T07:38:04.120Z,4.90
2019-03-06T07:40:34.732Z,5.00
2019-03-06T07:43:05.255Z,5.10
2019-03-06T07:45:49.240Z,5.20
2019-03-06T07:48:25.576Z,5.20
2019-03-06T07:50:58.782Z,5.30
2019-03-06T07:54:01.713Z,5.30
2019-03-06T07:56:32.233Z,5.40
2019-03-06T07:59:02.211Z,5.50
2019-03-06T08:01:39.966Z,5.60
2019-03-06T08:04:10.972Z,5.60
2019-03-06T08:06:41.485Z,5.70
2019-03-06T08:09:15.752Z,5.80
2019-03-06T08:12:03.055Z,5.90
2019-03-06T08:14:48.792Z,5.90
2019-03-06T08:17:31.661Z,6.00
2019-03-06T08:20:03.878Z,6.00
2019-03-06T08:22:47.900Z,6.00
2019-03-06T08:25:31.049Z,6.00
2019-03-06T08:28:03.213Z,6.00
2019-03-06T08:30:34.793Z,6.00
2019-03-06T08:33:04.787Z,5.90
2019-03-06T08:35:34.990Z,6.00
2019-03-06T08:38:03.940Z,6.00
2019-03-06T08:40:32.843Z,6.10
2019-03-06T08:43:03.822Z,6.10
2019-03-06T08:45:37.039Z,6.20
2019-03-06T08:48:29.700Z,6.20
2019-03-06T08:51:15.268Z,6.30
2019-03-06T08:53:58.314Z,6.30
2019-03-06T08:56:31.449Z,6.40
2019-03-06T08:59:01.987Z,6.40
2019-03-06T09:01:46.057Z,6.40
2019-03-06T09:04:18.763Z,6.50
2019-03-06T09:06:49.513Z,6.50
2019-03-06T09:09:36.249Z,6.60
2019-03-06T09:12:15.457Z,6.60
2019-03-06T09:15:08.352Z,6.70
2019-03-06T09:17:48.954Z,6.60
2019-03-06T09:20:35.419Z,6.70
2019-03-06T09:25:54.146Z,6.80
2019-03-06T09:28:35.862Z,6.80
2019-03-06T09:31:12.321Z,6.80
2019-03-06T09:33:47.047Z,6.90
2019-03-06T09:36:43.670Z,6.90
2019-03-06T09:42:30.116Z,7.00
2019-03-06T09:45:15.473Z,7.10
2019-03-06T09:47:49.896Z,7.00
2019-03-06T09:59:35.488Z,7.30
2019-03-06T10:02:08.637Z,7.30
2019-03-06T10:04:45.162Z,7.30
2019-03-06T10:07:27.370Z,7.30
2019-03-06T10:10:14.754Z,7.30
2019-03-06T10:12:48.912Z,7.30
2019-03-06T10:15:19.498Z,7.40
2019-03-06T10:17:50.084Z,7.30
2019-03-06T10:20:25.207Z,7.40
2019-03-06T10:22:54.781Z,7.30
2019-03-06T10:25:29.792Z,7.40
2019-03-06T10:27:53.725Z,7.40
2019-03-06T10:30:22.788Z,7.40
2019-03-06T10:32:52.180Z,7.40
2019-03-06T10:35:21.181Z,7.50
2019-03-06T10:37:50.441Z,7.50
2019-03-06T10:40:21.246Z,7.60
2019-03-06T10:42:50.569Z,7.50
2019-03-06T10:45:20.037Z,7.50
2019-03-06T10:47:49.287Z,7.50
2019-03-06T10:50:26.588Z,7.60
2019-03-06T10:52:51.841Z,7.60
2019-03-06T10:55:21.663Z,7.60
2019-03-06T10:57:51.630Z,7.70
2019-03-06T11:00:27.337Z,7.80
2019-03-06T11:02:56.962Z,7.90
2019-03-06T11:05:30.515Z,8.00
2019-03-06T11:08:01.268Z,8.00
2019-03-06T11:10:32.464Z,8.00
2019-03-06T11:13:04.548Z,8.00
2019-03-06T11:15:33.747Z,8.00
2019-03-06T11:18:02.782Z,8.00
2019-03-06T11:20:34.676Z,8.00
2019-03-06T11:23:06.319Z,8.00
2019-03-06T11:25:36.095Z,8.00
2019-03-06T11:28:07.160Z,7.90
2019-03-06T11:30:47.601Z,7.80
2019-03-06T11:33:17.241Z,7.60
2019-03-06T11:35:46.938Z,7.70
2019-03-06T11:38:15.975Z,7.80
2019-03-06T11:40:45.072Z,7.90
2019-03-06T11:43:14.113Z,7.90
2019-03-06T11:45:43.606Z,7.90
2019-03-06T11:48:13.635Z,8.00
2019-03-06T11:50:42.837Z,8.00
2019-03-06T11:53:11.790Z,8.10
2019-03-06T11:55:40.706Z,8.10
2019-03-06T11:58:15.525Z,8.10
2019-03-06T12:00:46.132Z,8.00
2019-03-06T12:03:17.646Z,7.90
2019-03-06T12:05:47.344Z,7.90
2019-03-06T12:08:18.675Z,7.90
2019-03-06T12:10:48.123Z,7.90
2019-03-06T12:13:18.027Z,7.90
2019-03-06T12:15:48.718Z,7.80
2019-03-06T12:18:18.872Z,7.80
2019-03-06T12:20:47.862Z,7.70
2019-03-06T12:23:16.758Z,7.60
2019-03-06T12:25:45.805Z,7.50
2019-03-06T12:28:15.501Z,7.60
2019-03-06T12:30:44.740Z,7.60
2019-03-06T12:33:18.997Z,7.60
2019-03-06T12:35:48.983Z,7.60
2019-03-06T12:38:17.876Z,7.70
2019-03-06T12:40:47.950Z,7.60
2019-03-06T12:43:18.391Z,7.70
2019-03-06T12:46:22.411Z,7.60
2019-03-06T12:48:45.222Z,7.60
2019-03-06T12:51:15.599Z,7.50
2019-03-06T12:53:44.801Z,7.40
2019-03-06T12:56:13.748Z,7.40
2019-03-06T12:58:42.650Z,7.40
2019-03-06T13:01:11.591Z,7.40
2019-03-06T13:03:40.497Z,7.30
2019-03-06T13:06:09.437Z,7.30
2019-03-06T13:08:38.636Z,7.20
2019-03-06T13:11:07.639Z,7.30
2019-03-06T13:13:36.566Z,7.20
2019-03-06T13:16:05.425Z,7.20
2019-03-06T13:18:34.363Z,7.20
2019-03-06T13:21:03.302Z,7.20
2019-03-06T13:23:32.544Z,7.10
2019-03-06T13:26:10.019Z,7.10
2019-03-06T13:28:32.029Z,7.00
2019-03-06T13:31:00.977Z,7.00
2019-03-06T13:33:34.173Z,7.00
2019-03-06T13:36:03.117Z,6.90
2019-03-06T13:38:32.614Z,6.90
2019-03-06T13:41:01.558Z,6.90
2019-03-06T13:43:30.453Z,6.90
2019-03-06T13:45:59.400Z,6.90
2019-03-06T13:48:28.300Z,6.90
2019-03-06T13:50:57.345Z,6.90
2019-03-06T13:53:27.740Z,7.00
2019-03-06T13:55:56.779Z,7.00
2019-03-06T13:58:25.678Z,7.00
2019-03-06T14:00:54.621Z,7.00
2019-03-06T14:03:23.716Z,6.90
2019-03-06T14:05:52.668Z,7.00
2019-03-06T14:08:21.894Z,7.00
2019-03-06T14:10:51.135Z,7.10
2019-03-06T14:13:20.034Z,7.10
2019-03-06T14:15:54.019Z,7.20
2019-03-06T14:18:19.504Z,7.20
2019-03-06T14:20:49.046Z,7.30
2019-03-06T14:23:18.050Z,7.30
2019-03-06T14:25:47.589Z,7.30
2019-03-06T14:28:16.486Z,7.30
2019-03-06T14:30:45.432Z,7.30
2019-03-06T14:33:14.335Z,7.30
2019-03-06T14:35:43.375Z,7.40
2019-03-06T14:38:12.282Z,7.40
2019-03-06T14:40:41.221Z,7.50
2019-03-06T14:43:10.408Z,7.60
2019-03-06T14:45:39.818Z,7.60
2019-03-06T14:48:08.752Z,7.60
2019-03-06T14:50:37.652Z,7.60
2019-03-06T14:53:07.398Z,7.50
2019-03-06T14:55:37.000Z,7.60
2019-03-06T14:58:06.142Z,7.70
2019-03-06T15:00:35.145Z,7.80
2019-03-06T15:03:04.084Z,7.90
2019-03-06T15:05:33.091Z,8.00
2019-03-06T15:08:02.020Z,8.00
2019-03-06T15:10:30.924Z,8.10
2019-03-06T15:13:00.169Z,8.20
2019-03-06T15:15:29.063Z,8.20
2019-03-06T15:17:58.005Z,8.30
2019-03-06T15:20:28.015Z,8.40
2019-03-06T15:22:57.855Z,8.30
2019-03-06T15:25:28.162Z,8.30
2019-03-06T15:27:57.093Z,8.20
2019-03-06T15:30:26.190Z,8.20
2019-03-06T15:32:55.127Z,8.20
2019-03-06T15:35:24.324Z,8.20
2019-03-06T15:37:53.267Z,8.10
2019-03-06T15:40:31.257Z,8.10
2019-03-06T15:43:00.444Z,8.10
2019-03-06T15:45:32.914Z,8.00
2019-03-06T15:48:02.062Z,8.00
2019-03-06T15:50:31.365Z,8.00
2019-03-06T15:53:00.410Z,8.00
2019-03-06T15:55:30.841Z,8.00
2019-03-06T15:58:00.168Z,8.00
2019-03-06T16:00:34.912Z,8.00
2019-03-06T16:03:08.803Z,8.00
2019-03-06T16:05:38.402Z,7.90
2019-03-06T16:08:09.013Z,8.00
2019-03-06T16:10:38.410Z,8.00
2019-03-06T16:13:07.763Z,7.90
2019-03-06T16:15:36.804Z,7.90
2019-03-06T16:18:09.867Z,8.00
2019-03-06T16:20:39.110Z,7.90
2019-03-06T16:23:08.504Z,7.90
2019-03-06T16:25:40.046Z,7.90
2019-03-06T16:28:09.403Z,7.90
2019-03-06T16:30:38.747Z,7.90
2019-03-06T16:33:07.645Z,7.90
2019-03-06T16:35:36.584Z,7.90
2019-03-06T16:38:05.584Z,7.90
2019-03-06T16:40:34.527Z,7.80
2019-03-06T16:43:03.428Z,7.80
2019-03-06T16:45:32.396Z,7.80
2019-03-06T16:48:01.403Z,7.80
2019-03-06T16:50:30.446Z,7.80
2019-03-06T16:52:59.356Z,7.80
2019-03-06T16:55:28.898Z,7.80
2019-03-06T16:57:58.398Z,7.80
2019-03-06T17:00:32.548Z,7.80
2019-03-06T17:03:05.904Z,7.80
2019-03-06T17:05:35.182Z,7.70
2019-03-06T17:08:05.074Z,7.80
2019-03-06T17:10:35.407Z,7.80
2019-03-06T17:13:04.908Z,7.80
2019-03-06T17:15:34.047Z,7.80
2019-03-06T17:18:03.051Z,7.80
2019-03-06T17:20:36.523Z,7.80
2019-03-06T17:23:06.385Z,7.80
2019-03-06T17:25:35.725Z,7.80
2019-03-06T17:28:05.222Z,7.80
2019-03-06T17:30:35.972Z,7.80
2019-03-06T17:33:15.719Z,7.80
2019-03-06T17:35:44.861Z,7.80
2019-03-06T17:38:19.470Z,7.80
2019-03-06T17:40:48.172Z,7.80
2019-03-06T17:43:17.063Z,7.80
2019-03-06T17:45:46.206Z,7.80
2019-03-06T17:48:15.125Z,7.80
2019-03-06T17:50:44.150Z,7.90
2019-03-06T17:53:13.078Z,7.90
2019-03-06T17:55:42.802Z,7.80
2019-03-06T17:58:12.532Z,7.90
2019-03-06T18:00:51.533Z,7.90
2019-03-06T18:03:32.254Z,7.90
2019-03-06T18:06:01.270Z,7.90
2019-03-06T18:08:30.170Z,7.90
2019-03-06T18:10:59.107Z,7.90
2019-03-06T18:13:29.858Z,7.90
2019-03-06T18:15:58.607Z,7.90
2019-03-06T18:18:29.178Z,7.90
2019-03-06T18:20:58.340Z,8.00
2019-03-06T18:23:27.542Z,8.00
2019-03-06T18:25:56.584Z,8.00
2019-03-06T18:28:25.485Z,8.00
2019-03-06T18:30:55.630Z,8.00
2019-03-06T18:33:24.530Z,8.00
2019-03-06T18:35:53.421Z,8.00
2019-03-06T18:38:22.413Z,8.00
2019-03-06T18:40:51.306Z,8.00
2019-03-06T18:43:20.245Z,8.00
2019-03-06T18:45:49.144Z,8.00
2019-03-06T18:48:18.078Z,8.00
2019-03-06T18:50:46.994Z,8.00
2019-03-06T18:53:16.043Z,8.00
2019-03-06T18:55:45.038Z,8.00
2019-03-06T18:58:13.986Z,8.00
2019-03-06T19:00:42.896Z,8.00
2019-03-06T19:03:11.965Z,8.00
2019-03-06T19:05:40.863Z,8.00
2019-03-06T19:08:09.812Z,8.00
2019-03-06T19:10:38.916Z,8.00
2019-03-06T19:13:07.862Z,8.00
2019-03-06T19:15:36.794Z,8.00
2019-03-06T19:18:05.736Z,8.00
2019-03-06T19:20:34.688Z,8.00
2019-03-06T19:23:03.696Z,8.00
2019-03-06T19:25:32.793Z,8.00
2019-03-06T19:28:01.733Z,8.00
2019-03-06T19:30:30.625Z,8.00
2019-03-06T19:32:59.562Z,8.00
2019-03-06T19:35:29.571Z,8.00
2019-03-06T19:37:58.529Z,8.00
2019-03-06T19:40:27.729Z,8.10
2019-03-06T19:42:56.683Z,8.00
2019-03-06T19:45:26.592Z,8.10
2019-03-06T19:47:55.588Z,8.00
2019-03-06T19:50:26.247Z,8.10
2019-03-06T19:52:55.532Z,8.00
2019-03-06T19:55:24.870Z,8.00
2019-03-06T19:57:56.362Z,8.10
2019-03-06T20:00:26.800Z,8.00
2019-03-06T20:02:56.014Z,8.00
2019-03-06T20:05:27.324Z,8.10
2019-03-06T20:07:56.320Z,8.10
2019-03-06T20:10:25.266Z,8.10
2019-03-06T20:12:54.165Z,8.10
2019-03-06T20:15:23.208Z,8.10
2019-03-06T20:17:52.107Z,8.00
2019-03-06T20:20:21.046Z,8.00
2019-03-06T20:22:49.946Z,8.00
2019-03-06T20:25:19.985Z,8.00
2019-03-06T20:27:48.881Z,8.10
2019-03-06T20:30:20.803Z,8.10
2019-03-06T20:32:49.992Z,8.00
2019-03-06T20:35:21.144Z,8.00
2019-03-06T20:37:50.142Z,7.20
2019-03-06T20:40:19.388Z,8.10
2019-03-06T20:42:48.694Z,8.10
2019-03-06T20:45:18.746Z,8.10
2019-03-06T20:47:47.933Z,8.10
2019-03-06T20:50:18.944Z,8.10
2019-03-06T20:52:50.106Z,8.10
2019-03-06T20:55:18.541Z,8.10
2019-03-06T20:57:47.435Z,8.10
2019-03-06T21:00:25.692Z,8.00
2019-03-06T21:02:55.294Z,8.10
2019-03-06T21:05:24.236Z,8.10
2019-03-06T21:07:53.464Z,8.10
2019-03-06T21:10:22.422Z,8.10
2019-03-06T21:12:51.626Z,8.10
2019-03-06T21:15:24.111Z,8.10
2019-03-06T21:17:53.138Z,8.20
2019-03-06T21:20:25.575Z,8.20
2019-03-06T21:22:54.483Z,8.10
2019-03-06T21:25:23.433Z,8.10
2019-03-06T21:27:52.636Z,8.10
2019-03-06T21:30:38.267Z,8.10
2019-03-06T21:33:07.266Z,8.10
2019-03-06T21:35:36.315Z,8.10
2019-03-06T21:38:05.317Z,8.20
2019-03-06T21:40:34.906Z,8.20
2019-03-06T21:43:03.908Z,8.20
2019-03-06T21:45:33.809Z,8.20
2019-03-06T21:48:02.954Z,8.20
2019-03-06T21:50:31.862Z,8.10
2019-03-06T21:53:00.902Z,8.10
2019-03-06T21:55:30.198Z,8.20
2019-03-06T21:57:59.142Z,8.20
2019-03-06T22:00:28.211Z,8.20
2019-03-06T22:02:57.231Z,8.20
2019-03-06T22:05:26.215Z,8.20
2019-03-06T22:07:55.253Z,8.20
2019-03-06T22:10:24.554Z,8.30
2019-03-06T22:12:53.498Z,8.20
2019-03-06T22:15:23.289Z,8.20
2019-03-06T22:17:52.421Z,8.20
2019-03-06T22:20:21.317Z,8.20
2019-03-06T22:22:50.264Z,8.20
2019-03-06T22:25:19.780Z,8.20
2019-03-06T22:27:48.721Z,8.20
2019-03-06T22:30:22.099Z,8.20
2019-03-06T22:32:50.381Z,8.20
2019-03-06T22:35:19.476Z,8.20
2019-03-06T22:37:48.417Z,8.20
2019-03-06T22:40:20.952Z,8.20
2019-03-06T22:42:50.089Z,8.10
2019-03-06T22:45:20.292Z,8.20
2019-03-06T22:47:49.422Z,8.10
2019-03-06T22:50:19.132Z,8.20
2019-03-06T22:52:48.792Z,8.20
2019-03-06T22:55:22.073Z,8.20
2019-03-06T22:57:51.023Z,8.20
2019-03-06T23:00:28.907Z,8.20
2019-03-06T23:02:58.239Z,8.20
2019-03-06T23:05:32.163Z,8.20
2019-03-06T23:08:01.473Z,8.20
2019-03-06T23:10:30.364Z,8.20
2019-03-06T23:12:59.319Z,8.20
2019-03-06T23:15:29.204Z,8.20
2019-03-06T23:17:58.458Z,8.20
2019-03-06T23:20:27.417Z,8.10
2019-03-06T23:22:56.386Z,8.20
2019-03-06T23:25:25.302Z,8.20
2019-03-06T23:27:54.246Z,8.20
2019-03-06T23:30:23.245Z,8.20
2019-03-06T23:32:52.281Z,8.20
2019-03-06T23:35:21.178Z,8.20
2019-03-06T23:37:50.079Z,8.20
2019-03-06T23:40:19.018Z,8.20
2019-03-06T23:42:48.231Z,8.20
2019-03-06T23:45:17.463Z,8.20
2019-03-06T23:47:46.356Z,8.20
2019-03-06T23:50:15.296Z,8.20
2019-03-06T23:52:57.524Z,8.20
2019-03-06T23:55:28.168Z,8.20
2019-03-06T23:57:57.382Z,8.20
